»·PEaware :: N713AK KPDX-KGEG

N713AK :: KPDX-KGEG

FLIGHT INFORMATION

Flight Status: Arrived
Operator: Privately registered:
United States
More flights under this callsign
Pilot: Alfredo R. (12181)
Aircraft: Unknown
(HA4T)
More flights by this aircraft type
Origin: KPDX Portland Intl
United States
Destination: KGEG Spokane Intl
United States
More flights between these airports :: More routes between these airports
Route: LAVAA6 LAVAA PAPPS ZOOMR ZOOMR1
File this flight plan on PilotEdge
Remarks: RMK / SIMBRIEF
Altitude:
(Current/Filed)
27,000ft
Speed:
(Current/Filed)
458kts
Departed: 22-Oct-20 05:00 PM
Arrived: 22-Oct-20 05:54 PM
Distance/Time
Traveled:
242nm/0:54
Distance/Time
To Go:
Arrived

Flight Plot

Page will automatically refresh every two minutes.

Flight plan parsing failed; only flown route is shown


Map Options




Map Legend


Flown Route
Filed Route
Departure Airport
Arrival Airport
Navaid (VOR, NDB)
Fix

Horizontal Profiles

Position Reports

Time Latitude Longitude Heading Altitude Ground
Speed
22-Oct-20 16:27 45.586683 -122.581476 299 35ft 0kts
22-Oct-20 16:28 45.586683 -122.581476 299 35ft 0kts
22-Oct-20 16:29 45.586683 -122.581476 299 35ft 0kts
22-Oct-20 16:30 45.586683 -122.581476 299 35ft 0kts
22-Oct-20 16:31 45.586683 -122.581476 299 35ft 0kts
22-Oct-20 16:32 45.586683 -122.581476 299 35ft 0kts
22-Oct-20 16:33 45.586683 -122.581476 299 35ft 0kts
22-Oct-20 16:34 45.586683 -122.581476 299 35ft 0kts
22-Oct-20 16:35 45.586683 -122.581476 299 35ft 0kts
22-Oct-20 16:36 45.586683 -122.581476 299 35ft 0kts
22-Oct-20 16:37 45.586683 -122.581476 299 35ft 0kts
22-Oct-20 16:38 45.586683 -122.581476 299 35ft 0kts
22-Oct-20 16:39 45.586683 -122.581476 299 35ft 0kts
22-Oct-20 16:40 45.586683 -122.581476 299 35ft 0kts
22-Oct-20 16:41 45.586683 -122.581476 299 35ft 0kts
22-Oct-20 16:42 45.586683 -122.581476 299 35ft 0kts
22-Oct-20 16:43 45.586683 -122.581476 299 35ft 0kts
22-Oct-20 16:44 45.586683 -122.581476 299 35ft 0kts
22-Oct-20 16:45 45.586683 -122.581476 299 35ft 0kts
22-Oct-20 16:46 45.586683 -122.581476 299 35ft 0kts
22-Oct-20 16:47 45.586683 -122.581476 299 35ft 0kts
22-Oct-20 16:48 45.586683 -122.581476 299 35ft 0kts
22-Oct-20 16:49 45.586683 -122.581476 299 35ft 0kts
22-Oct-20 16:50 45.586683 -122.581476 299 35ft 0kts
22-Oct-20 16:51 45.586859 -122.581826 333 35ft 0kts
22-Oct-20 16:52 45.586859 -122.581826 333 35ft 0kts
22-Oct-20 16:53 45.587120 -122.581718 75 35ft 0kts
22-Oct-20 16:54 45.586534 -122.580014 118 35ft 13kts
22-Oct-20 16:55 45.586279 -122.576972 118 35ft 15kts
22-Oct-20 16:56 45.584164 -122.571531 118 35ft 14kts
22-Oct-20 16:57 45.582752 -122.567388 67 35ft 0kts
22-Oct-20 16:58 45.582752 -122.567388 67 35ft 0kts
22-Oct-20 16:59 45.585423 -122.571581 299 35ft 80kts
22-Oct-20 17:00 45.610603 -122.632755 303 1837ft 224kts
22-Oct-20 17:01 45.639537 -122.705758 284 4251ft 225kts
22-Oct-20 17:02 45.668069 -122.789941 319 6765ft 244kts
22-Oct-20 17:03 45.732274 -122.767261 23 7012ft 266kts
22-Oct-20 17:04 45.757787 -122.666731 85 9981ft 338kts
22-Oct-20 17:05 45.756142 -122.532088 85 12768ft 383kts
22-Oct-20 17:06 45.754641 -122.401722 85 14924ft 402kts
22-Oct-20 17:07 45.752934 -122.269084 86 14978ft 401kts
22-Oct-20 17:08 45.750524 -122.098378 86 17128ft 421kts
22-Oct-20 17:09 45.747515 -121.908403 86 20481ft 434kts
22-Oct-20 17:10 45.772498 -121.744496 49 23438ft 422kts
22-Oct-20 17:11 45.837026 -121.602508 52 26460ft 443kts
22-Oct-20 17:12 45.895775 -121.437662 53 27366ft 462kts
22-Oct-20 17:13 45.953263 -121.274862 54 27357ft 463kts
22-Oct-20 17:14 46.010883 -121.110626 54 27367ft 461kts
22-Oct-20 17:15 46.068442 -120.945568 54 27368ft 461kts
22-Oct-20 17:16 46.122753 -120.788872 54 27381ft 461kts
22-Oct-20 17:17 46.180506 -120.621208 53 27383ft 464kts
22-Oct-20 17:18 46.238104 -120.452953 53 27385ft 464kts
22-Oct-20 17:19 46.294356 -120.287564 53 27383ft 466kts
22-Oct-20 17:20 46.351342 -120.118950 53 27384ft 467kts
22-Oct-20 17:21 46.408294 -119.949358 53 27386ft 467kts
22-Oct-20 17:22 46.476974 -119.796605 29 27386ft 431kts
22-Oct-20 17:23 46.562268 -119.670445 33 27388ft 439kts
22-Oct-20 17:24 46.646401 -119.540876 33 27418ft 441kts
22-Oct-20 17:25 46.729328 -119.412402 33 27415ft 427kts
22-Oct-20 17:26 46.810410 -119.286299 33 26056ft 424kts
22-Oct-20 17:27 46.890657 -119.160867 33 24181ft 416kts
22-Oct-20 17:28 46.968695 -119.038342 34 22328ft 407kts
22-Oct-20 17:29 47.045153 -118.917722 35 20483ft 399kts
22-Oct-20 17:30 47.120057 -118.799019 36 18663ft 391kts
22-Oct-20 17:31 47.193219 -118.682531 36 16885ft 379kts
22-Oct-20 17:32 47.263005 -118.570947 37 15118ft 362kts
22-Oct-20 17:34 47.329905 -118.463623 38 13348ft 348kts
22-Oct-20 17:35 47.392094 -118.358587 34 12014ft 331kts
22-Oct-20 17:36 47.438344 -118.247693 66 11399ft 322kts
22-Oct-20 17:37 47.492586 -118.171223 342 10333ft 280kts
22-Oct-20 17:38 47.553629 -118.122482 64 9311ft 289kts
22-Oct-20 17:39 47.581975 -118.017280 64 8130ft 271kts
22-Oct-20 17:40 47.610043 -117.914136 64 6927ft 267kts
22-Oct-20 17:41 47.636329 -117.817584 64 6009ft 242kts
22-Oct-20 17:42 47.665606 -117.729169 44 5110ft 236kts
22-Oct-20 17:43 47.708603 -117.655126 44 4986ft 235kts
22-Oct-20 17:44 47.751271 -117.581410 48 4981ft 218kts
22-Oct-20 17:45 47.721997 -117.517211 158 4996ft 218kts
22-Oct-20 17:46 47.668952 -117.482152 114 4984ft 225kts
22-Oct-20 17:47 47.667568 -117.389862 86 5004ft 224kts
22-Oct-20 17:48 47.690292 -117.310835 44 5022ft 200kts
22-Oct-20 17:49 47.725608 -117.313087 272 5002ft 159kts
22-Oct-20 17:50 47.723221 -117.378990 247 4878ft 164kts
22-Oct-20 17:51 47.691554 -117.427362 230 4104ft 140kts
22-Oct-20 17:52 47.664399 -117.468438 226 3344ft 140kts
22-Oct-20 17:52 47.641620 -117.502696 223 2716ft 137kts
22-Oct-20 17:54 47.618881 -117.536780 224 2390ft 27kts
22-Oct-20 17:54 47.618689 -117.533658 46 2390ft 18kts
22-Oct-20 17:56 47.623400 -117.526556 45 2390ft 15kts
22-Oct-20 17:56 47.621977 -117.525128 146 2390ft 12kts
22-Oct-20 17:57 47.620370 -117.523581 181 2390ft 0kts
22-Oct-20 17:58 47.620334 -117.523583 181 2390ft 0kts

Navigation Log

Ident Type
Flight plan parsing failed, navigation log unavailable